sensor_id;sensor_type;location;lat;lon;timestamp;P1;durP1;ratioP1;P2;durP2;ratioP2
66189;SDS011;52992;52.084;5.412;2022-11-13T00:02:22;14.20;;;8.77;;
66189;SDS011;52992;52.084;5.412;2022-11-13T00:05:08;12.07;;;7.93;;
66189;SDS011;52992;52.084;5.412;2022-11-13T00:07:53;11.73;;;8.00;;
66189;SDS011;52992;52.084;5.412;2022-11-13T00:10:39;14.57;;;8.30;;
66189;SDS011;52992;52.084;5.412;2022-11-13T00:13:25;12.40;;;8.30;;
66189;SDS011;52992;52.084;5.412;2022-11-13T00:16:15;14.23;;;8.70;;
66189;SDS011;52992;52.084;5.412;2022-11-13T00:19:02;15.07;;;9.13;;
66189;SDS011;52992;52.084;5.412;2022-11-13T00:21:48;14.20;;;8.93;;
66189;SDS011;52992;52.084;5.412;2022-11-13T00:24:33;14.20;;;9.03;;
66189;SDS011;52992;52.084;5.412;2022-11-13T00:27:19;12.80;;;9.10;;
66189;SDS011;52992;52.084;5.412;2022-11-13T00:30:05;16.93;;;9.67;;
66189;SDS011;52992;52.084;5.412;2022-11-13T00:32:51;18.23;;;9.07;;
66189;SDS011;52992;52.084;5.412;2022-11-13T00:35:36;15.40;;;9.33;;
66189;SDS011;52992;52.084;5.412;2022-11-13T00:38:22;15.43;;;8.63;;
66189;SDS011;52992;52.084;5.412;2022-11-13T00:41:07;15.67;;;9.60;;
66189;SDS011;52992;52.084;5.412;2022-11-13T00:43:53;13.70;;;8.63;;
66189;SDS011;52992;52.084;5.412;2022-11-13T00:46:38;12.83;;;8.60;;
66189;SDS011;52992;52.084;5.412;2022-11-13T00:49:24;15.30;;;8.30;;
66189;SDS011;52992;52.084;5.412;2022-11-13T00:52:09;13.57;;;8.57;;
66189;SDS011;52992;52.084;5.412;2022-11-13T00:54:55;13.50;;;8.47;;
66189;SDS011;52992;52.084;5.412;2022-11-13T00:57:41;12.80;;;8.43;;
66189;SDS011;52992;52.084;5.412;2022-11-13T01:00:26;14.60;;;8.47;;
66189;SDS011;52992;52.084;5.412;2022-11-13T01:03:13;13.53;;;8.47;;
66189;SDS011;52992;52.084;5.412;2022-11-13T01:05:59;15.63;;;9.40;;
66189;SDS011;52992;52.084;5.412;2022-11-13T01:08:44;13.50;;;9.10;;
66189;SDS011;52992;52.084;5.412;2022-11-13T01:11:30;14.53;;;9.50;;
66189;SDS011;52992;52.084;5.412;2022-11-13T01:14:15;14.73;;;8.80;;
66189;SDS011;52992;52.084;5.412;2022-11-13T01:17:01;18.50;;;9.60;;
66189;SDS011;52992;52.084;5.412;2022-11-13T01:19:46;13.97;;;9.20;;
66189;SDS011;52992;52.084;5.412;2022-11-13T01:22:32;15.93;;;9.23;;
66189;SDS011;52992;52.084;5.412;2022-11-13T01:25:17;15.33;;;10.00;;
66189;SDS011;52992;52.084;5.412;2022-11-13T01:28:03;18.20;;;9.57;;
66189;SDS011;52992;52.084;5.412;2022-11-13T01:30:48;15.00;;;9.27;;
66189;SDS011;52992;52.084;5.412;2022-11-13T01:33:34;18.47;;;10.60;;
66189;SDS011;52992;52.084;5.412;2022-11-13T01:36:21;19.83;;;10.90;;
66189;SDS011;52992;52.084;5.412;2022-11-13T01:39:09;21.63;;;10.70;;
66189;SDS011;52992;52.084;5.412;2022-11-13T01:41:56;15.00;;;9.30;;
66189;SDS011;52992;52.084;5.412;2022-11-13T01:44:49;23.17;;;11.47;;
66189;SDS011;52992;52.084;5.412;2022-11-13T01:47:38;18.07;;;10.13;;
66189;SDS011;52992;52.084;5.412;2022-11-13T01:50:24;15.77;;;9.77;;
66189;SDS011;52992;52.084;5.412;2022-11-13T01:53:10;16.50;;;10.40;;
66189;SDS011;52992;52.084;5.412;2022-11-13T01:55:56;14.77;;;9.90;;
66189;SDS011;52992;52.084;5.412;2022-11-13T01:58:42;18.03;;;10.10;;
66189;SDS011;52992;52.084;5.412;2022-11-13T02:01:32;17.93;;;10.07;;
66189;SDS011;52992;52.084;5.412;2022-11-13T02:04:18;16.20;;;10.60;;
66189;SDS011;52992;52.084;5.412;2022-11-13T02:07:07;15.43;;;10.07;;
66189;SDS011;52992;52.084;5.412;2022-11-13T02:09:55;20.43;;;11.10;;
66189;SDS011;52992;52.084;5.412;2022-11-13T02:12:42;17.73;;;10.67;;
66189;SDS011;52992;52.084;5.412;2022-11-13T02:15:33;17.90;;;11.17;;
66189;SDS011;52992;52.084;5.412;2022-11-13T02:18:19;18.10;;;10.60;;
66189;SDS011;52992;52.084;5.412;2022-11-13T02:24:30;17.10;;;10.63;;
66189;SDS011;52992;52.084;5.412;2022-11-13T02:27:27;18.87;;;12.00;;
66189;SDS011;52992;52.084;5.412;2022-11-13T02:30:21;19.20;;;11.53;;
66189;SDS011;52992;52.084;5.412;2022-11-13T02:33:44;22.40;;;12.13;;
66189;SDS011;52992;52.084;5.412;2022-11-13T02:36:23;23.33;;;11.43;;
66189;SDS011;52992;52.084;5.412;2022-11-13T02:39:11;19.63;;;11.03;;
66189;SDS011;52992;52.084;5.412;2022-11-13T02:41:57;19.13;;;11.80;;
66189;SDS011;52992;52.084;5.412;2022-11-13T02:44:42;16.67;;;10.30;;
66189;SDS011;52992;52.084;5.412;2022-11-13T02:47:28;16.90;;;11.27;;
66189;SDS011;52992;52.084;5.412;2022-11-13T02:50:14;21.10;;;11.77;;
66189;SDS011;52992;52.084;5.412;2022-11-13T02:53:00;17.13;;;11.00;;
66189;SDS011;52992;52.084;5.412;2022-11-13T02:55:45;18.70;;;11.20;;
66189;SDS011;52992;52.084;5.412;2022-11-13T02:58:31;21.20;;;10.93;;
66189;SDS011;52992;52.084;5.412;2022-11-13T03:01:16;18.23;;;11.40;;
66189;SDS011;52992;52.084;5.412;2022-11-13T03:04:02;18.30;;;11.20;;
66189;SDS011;52992;52.084;5.412;2022-11-13T03:06:47;19.30;;;11.40;;
66189;SDS011;52992;52.084;5.412;2022-11-13T03:09:32;20.33;;;11.53;;
66189;SDS011;52992;52.084;5.412;2022-11-13T03:12:18;21.07;;;11.37;;
66189;SDS011;52992;52.084;5.412;2022-11-13T03:15:04;16.13;;;10.90;;
66189;SDS011;52992;52.084;5.412;2022-11-13T03:17:50;16.20;;;10.93;;
66189;SDS011;52992;52.084;5.412;2022-11-13T03:20:36;18.00;;;11.93;;
66189;SDS011;52992;52.084;5.412;2022-11-13T03:23:23;18.57;;;11.63;;
66189;SDS011;52992;52.084;5.412;2022-11-13T03:26:09;18.47;;;11.43;;
66189;SDS011;52992;52.084;5.412;2022-11-13T03:28:57;19.43;;;11.37;;
66189;SDS011;52992;52.084;5.412;2022-11-13T03:31:42;17.33;;;11.77;;
66189;SDS011;52992;52.084;5.412;2022-11-13T03:34:28;17.57;;;10.70;;
66189;SDS011;52992;52.084;5.412;2022-11-13T03:37:14;18.57;;;11.00;;
66189;SDS011;52992;52.084;5.412;2022-11-13T03:39:59;15.53;;;10.90;;
66189;SDS011;52992;52.084;5.412;2022-11-13T03:42:45;16.00;;;10.50;;
66189;SDS011;52992;52.084;5.412;2022-11-13T03:45:30;17.87;;;10.20;;
66189;SDS011;52992;52.084;5.412;2022-11-13T03:48:16;17.70;;;11.20;;
66189;SDS011;52992;52.084;5.412;2022-11-13T03:51:02;15.53;;;10.80;;
66189;SDS011;52992;52.084;5.412;2022-11-13T03:53:47;19.03;;;12.27;;
66189;SDS011;52992;52.084;5.412;2022-11-13T03:56:33;17.67;;;10.40;;
66189;SDS011;52992;52.084;5.412;2022-11-13T03:59:18;16.67;;;10.87;;
66189;SDS011;52992;52.084;5.412;2022-11-13T04:02:04;17.60;;;10.67;;
66189;SDS011;52992;52.084;5.412;2022-11-13T04:04:49;19.83;;;10.23;;
66189;SDS011;52992;52.084;5.412;2022-11-13T04:07:35;15.67;;;10.50;;
66189;SDS011;52992;52.084;5.412;2022-11-13T04:10:21;15.37;;;10.23;;
66189;SDS011;52992;52.084;5.412;2022-11-13T04:13:06;17.60;;;10.77;;
66189;SDS011;52992;52.084;5.412;2022-11-13T04:15:52;15.73;;;10.37;;
66189;SDS011;52992;52.084;5.412;2022-11-13T04:18:37;15.80;;;9.50;;
66189;SDS011;52992;52.084;5.412;2022-11-13T04:21:23;17.87;;;11.03;;
66189;SDS011;52992;52.084;5.412;2022-11-13T04:24:08;19.00;;;10.83;;
66189;SDS011;52992;52.084;5.412;2022-11-13T04:26:54;16.30;;;10.07;;
66189;SDS011;52992;52.084;5.412;2022-11-13T04:29:39;16.77;;;10.40;;
66189;SDS011;52992;52.084;5.412;2022-11-13T04:32:25;14.57;;;9.83;;
66189;SDS011;52992;52.084;5.412;2022-11-13T04:35:10;12.53;;;9.17;;
66189;SDS011;52992;52.084;5.412;2022-11-13T04:37:56;16.23;;;11.23;;
66189;SDS011;52992;52.084;5.412;2022-11-13T04:40:42;15.73;;;10.07;;
66189;SDS011;52992;52.084;5.412;2022-11-13T04:43:28;16.70;;;9.83;;
66189;SDS011;52992;52.084;5.412;2022-11-13T04:46:13;15.33;;;9.67;;
66189;SDS011;52992;52.084;5.412;2022-11-13T04:48:59;14.20;;;8.73;;
66189;SDS011;52992;52.084;5.412;2022-11-13T04:51:44;15.80;;;9.50;;
66189;SDS011;52992;52.084;5.412;2022-11-13T04:54:30;17.40;;;9.60;;
66189;SDS011;52992;52.084;5.412;2022-11-13T04:57:15;12.60;;;8.37;;
66189;SDS011;52992;52.084;5.412;2022-11-13T05:00:01;15.60;;;9.00;;
66189;SDS011;52992;52.084;5.412;2022-11-13T05:02:48;17.07;;;9.73;;
66189;SDS011;52992;52.084;5.412;2022-11-13T05:05:33;15.03;;;9.83;;
66189;SDS011;52992;52.084;5.412;2022-11-13T05:08:19;12.97;;;9.10;;
66189;SDS011;52992;52.084;5.412;2022-11-13T05:11:05;12.80;;;8.97;;
66189;SDS011;52992;52.084;5.412;2022-11-13T05:13:50;13.30;;;8.97;;
66189;SDS011;52992;52.084;5.412;2022-11-13T05:16:35;12.93;;;8.97;;
66189;SDS011;52992;52.084;5.412;2022-11-13T05:19:21;16.20;;;8.93;;
66189;SDS011;52992;52.084;5.412;2022-11-13T05:22:06;16.13;;;9.53;;
66189;SDS011;52992;52.084;5.412;2022-11-13T05:24:53;13.77;;;9.67;;
66189;SDS011;52992;52.084;5.412;2022-11-13T05:27:38;16.87;;;9.27;;
66189;SDS011;52992;52.084;5.412;2022-11-13T05:30:24;13.80;;;9.60;;
66189;SDS011;52992;52.084;5.412;2022-11-13T05:33:09;15.20;;;9.03;;
66189;SDS011;52992;52.084;5.412;2022-11-13T05:35:55;14.20;;;9.20;;
66189;SDS011;52992;52.084;5.412;2022-11-13T05:38:46;14.63;;;8.90;;
66189;SDS011;52992;52.084;5.412;2022-11-13T05:41:31;15.70;;;10.27;;
66189;SDS011;52992;52.084;5.412;2022-11-13T05:44:17;14.00;;;9.77;;
66189;SDS011;52992;52.084;5.412;2022-11-13T05:47:03;14.77;;;10.13;;
66189;SDS011;52992;52.084;5.412;2022-11-13T05:49:48;13.57;;;9.63;;
66189;SDS011;52992;52.084;5.412;2022-11-13T05:52:33;13.83;;;9.10;;
66189;SDS011;52992;52.084;5.412;2022-11-13T05:55:19;14.00;;;8.97;;
66189;SDS011;52992;52.084;5.412;2022-11-13T05:58:07;12.53;;;8.90;;
66189;SDS011;52992;52.084;5.412;2022-11-13T06:00:52;14.53;;;9.70;;
66189;SDS011;52992;52.084;5.412;2022-11-13T06:03:38;15.30;;;9.77;;
66189;SDS011;52992;52.084;5.412;2022-11-13T06:06:25;13.80;;;9.83;;
66189;SDS011;52992;52.084;5.412;2022-11-13T06:09:12;14.40;;;9.90;;
66189;SDS011;52992;52.084;5.412;2022-11-13T06:12:01;14.37;;;9.50;;
66189;SDS011;52992;52.084;5.412;2022-11-13T06:14:46;14.87;;;9.77;;
66189;SDS011;52992;52.084;5.412;2022-11-13T06:17:32;17.67;;;9.40;;
66189;SDS011;52992;52.084;5.412;2022-11-13T06:20:17;14.43;;;9.23;;
66189;SDS011;52992;52.084;5.412;2022-11-13T06:23:03;17.07;;;10.40;;
66189;SDS011;52992;52.084;5.412;2022-11-13T06:25:48;15.73;;;10.20;;
66189;SDS011;52992;52.084;5.412;2022-11-13T06:28:34;16.63;;;9.77;;
66189;SDS011;52992;52.084;5.412;2022-11-13T06:31:21;12.80;;;8.93;;
66189;SDS011;52992;52.084;5.412;2022-11-13T06:34:07;16.33;;;10.00;;
66189;SDS011;52992;52.084;5.412;2022-11-13T06:36:53;15.23;;;9.77;;
66189;SDS011;52992;52.084;5.412;2022-11-13T06:39:38;18.57;;;10.03;;
66189;SDS011;52992;52.084;5.412;2022-11-13T06:42:24;16.97;;;9.47;;
66189;SDS011;52992;52.084;5.412;2022-11-13T06:45:09;18.97;;;10.17;;
66189;SDS011;52992;52.084;5.412;2022-11-13T06:47:55;17.50;;;10.80;;
66189;SDS011;52992;52.084;5.412;2022-11-13T06:50:41;16.23;;;10.67;;
66189;SDS011;52992;52.084;5.412;2022-11-13T06:53:32;17.43;;;11.13;;
66189;SDS011;52992;52.084;5.412;2022-11-13T06:56:18;14.30;;;10.10;;
66189;SDS011;52992;52.084;5.412;2022-11-13T06:59:05;15.43;;;9.80;;
66189;SDS011;52992;52.084;5.412;2022-11-13T07:01:52;13.53;;;9.17;;
66189;SDS011;52992;52.084;5.412;2022-11-13T07:04:37;18.43;;;9.73;;
66189;SDS011;52992;52.084;5.412;2022-11-13T07:07:23;13.80;;;9.17;;
66189;SDS011;52992;52.084;5.412;2022-11-13T07:10:08;15.83;;;9.80;;
66189;SDS011;52992;52.084;5.412;2022-11-13T07:12:54;14.13;;;9.40;;
66189;SDS011;52992;52.084;5.412;2022-11-13T07:15:43;15.27;;;9.70;;
66189;SDS011;52992;52.084;5.412;2022-11-13T07:18:29;15.30;;;9.93;;
66189;SDS011;52992;52.084;5.412;2022-11-13T07:21:15;14.87;;;9.23;;
66189;SDS011;52992;52.084;5.412;2022-11-13T07:24:01;13.83;;;9.67;;
66189;SDS011;52992;52.084;5.412;2022-11-13T07:26:46;13.43;;;8.90;;
66189;SDS011;52992;52.084;5.412;2022-11-13T07:29:32;12.90;;;9.10;;
66189;SDS011;52992;52.084;5.412;2022-11-13T07:32:17;13.50;;;9.33;;
66189;SDS011;52992;52.084;5.412;2022-11-13T07:35:03;15.23;;;9.83;;
66189;SDS011;52992;52.084;5.412;2022-11-13T07:37:49;17.07;;;9.63;;
66189;SDS011;52992;52.084;5.412;2022-11-13T07:40:39;13.47;;;9.10;;
66189;SDS011;52992;52.084;5.412;2022-11-13T07:43:25;12.63;;;9.07;;
66189;SDS011;52992;52.084;5.412;2022-11-13T07:46:10;14.10;;;10.00;;
66189;SDS011;52992;52.084;5.412;2022-11-13T07:48:56;14.07;;;8.87;;
66189;SDS011;52992;52.084;5.412;2022-11-13T07:51:41;14.23;;;9.40;;
66189;SDS011;52992;52.084;5.412;2022-11-13T07:54:27;14.73;;;9.87;;
66189;SDS011;52992;52.084;5.412;2022-11-13T07:57:12;23.00;;;14.00;;
66189;SDS011;52992;52.084;5.412;2022-11-13T07:59:58;23.43;;;13.67;;
66189;SDS011;52992;52.084;5.412;2022-11-13T08:02:44;26.40;;;14.40;;
66189;SDS011;52992;52.084;5.412;2022-11-13T08:05:31;21.53;;;14.77;;
66189;SDS011;52992;52.084;5.412;2022-11-13T08:08:17;20.80;;;13.70;;
66189;SDS011;52992;52.084;5.412;2022-11-13T08:11:03;21.77;;;13.20;;
66189;SDS011;52992;52.084;5.412;2022-11-13T08:13:53;22.43;;;13.23;;
66189;SDS011;52992;52.084;5.412;2022-11-13T08:16:41;22.63;;;11.67;;
66189;SDS011;52992;52.084;5.412;2022-11-13T08:19:27;18.40;;;10.77;;
66189;SDS011;52992;52.084;5.412;2022-11-13T08:22:12;13.53;;;9.53;;
66189;SDS011;52992;52.084;5.412;2022-11-13T08:24:58;13.27;;;9.53;;
66189;SDS011;52992;52.084;5.412;2022-11-13T08:27:44;13.27;;;9.53;;
66189;SDS011;52992;52.084;5.412;2022-11-13T08:30:29;15.13;;;9.60;;
66189;SDS011;52992;52.084;5.412;2022-11-13T08:33:15;13.70;;;10.07;;
66189;SDS011;52992;52.084;5.412;2022-11-13T08:36:00;15.07;;;9.50;;
66189;SDS011;52992;52.084;5.412;2022-11-13T08:38:46;16.57;;;9.47;;
66189;SDS011;52992;52.084;5.412;2022-11-13T08:41:32;12.83;;;9.17;;
66189;SDS011;52992;52.084;5.412;2022-11-13T08:44:17;17.80;;;10.17;;
66189;SDS011;52992;52.084;5.412;2022-11-13T08:47:03;17.73;;;10.73;;
66189;SDS011;52992;52.084;5.412;2022-11-13T08:49:49;14.63;;;10.33;;
66189;SDS011;52992;52.084;5.412;2022-11-13T08:52:34;15.03;;;9.83;;
66189;SDS011;52992;52.084;5.412;2022-11-13T08:55:20;19.17;;;10.27;;
66189;SDS011;52992;52.084;5.412;2022-11-13T08:58:06;14.00;;;9.40;;
66189;SDS011;52992;52.084;5.412;2022-11-13T09:00:52;13.63;;;10.03;;
66189;SDS011;52992;52.084;5.412;2022-11-13T09:03:43;16.30;;;10.93;;
66189;SDS011;52992;52.084;5.412;2022-11-13T09:06:28;15.60;;;10.73;;
66189;SDS011;52992;52.084;5.412;2022-11-13T09:09:14;18.20;;;11.40;;
66189;SDS011;52992;52.084;5.412;2022-11-13T09:11:59;16.80;;;11.03;;
66189;SDS011;52992;52.084;5.412;2022-11-13T09:14:45;17.27;;;10.97;;
66189;SDS011;52992;52.084;5.412;2022-11-13T09:17:30;15.93;;;11.97;;
66189;SDS011;52992;52.084;5.412;2022-11-13T09:20:15;17.00;;;11.47;;
66189;SDS011;52992;52.084;5.412;2022-11-13T09:23:07;15.43;;;10.93;;
66189;SDS011;52992;52.084;5.412;2022-11-13T09:25:52;16.63;;;11.07;;
66189;SDS011;52992;52.084;5.412;2022-11-13T09:28:38;14.67;;;10.60;;
66189;SDS011;52992;52.084;5.412;2022-11-13T09:31:24;16.03;;;11.33;;
66189;SDS011;52992;52.084;5.412;2022-11-13T09:34:10;17.47;;;12.17;;
66189;SDS011;52992;52.084;5.412;2022-11-13T09:36:55;19.47;;;11.13;;
66189;SDS011;52992;52.084;5.412;2022-11-13T09:39:41;15.37;;;10.90;;
66189;SDS011;52992;52.084;5.412;2022-11-13T09:42:27;14.93;;;11.50;;
66189;SDS011;52992;52.084;5.412;2022-11-13T09:45:15;15.60;;;11.83;;
66189;SDS011;52992;52.084;5.412;2022-11-13T09:48:22;20.30;;;11.63;;
66189;SDS011;52992;52.084;5.412;2022-11-13T09:51:15;19.00;;;12.07;;
66189;SDS011;52992;52.084;5.412;2022-11-13T09:54:06;17.80;;;11.10;;
66189;SDS011;52992;52.084;5.412;2022-11-13T10:00:05;14.43;;;10.87;;
66189;SDS011;52992;52.084;5.412;2022-11-13T10:12:11;16.10;;;10.93;;
66189;SDS011;52992;52.084;5.412;2022-11-13T10:14:59;20.00;;;11.47;;
66189;SDS011;52992;52.084;5.412;2022-11-13T10:17:54;14.17;;;10.47;;
66189;SDS011;52992;52.084;5.412;2022-11-13T10:21:08;16.37;;;10.67;;
66189;SDS011;52992;52.084;5.412;2022-11-13T10:24:02;13.27;;;10.10;;
66189;SDS011;52992;52.084;5.412;2022-11-13T10:26:57;16.83;;;10.43;;
66189;SDS011;52992;52.084;5.412;2022-11-13T10:29:43;16.20;;;11.33;;
66189;SDS011;52992;52.084;5.412;2022-11-13T10:32:33;14.27;;;10.00;;
66189;SDS011;52992;52.084;5.412;2022-11-13T10:35:27;16.37;;;10.17;;
66189;SDS011;52992;52.084;5.412;2022-11-13T10:41:28;13.23;;;8.97;;
66189;SDS011;52992;52.084;5.412;2022-11-13T10:44:24;14.97;;;9.10;;
66189;SDS011;52992;52.084;5.412;2022-11-13T10:47:15;15.03;;;8.57;;
66189;SDS011;52992;52.084;5.412;2022-11-13T10:50:26;10.70;;;8.23;;
66189;SDS011;52992;52.084;5.412;2022-11-13T10:53:14;12.13;;;8.30;;
66189;SDS011;52992;52.084;5.412;2022-11-13T10:56:11;13.93;;;8.70;;
66189;SDS011;52992;52.084;5.412;2022-11-13T11:01:51;12.53;;;8.90;;
66189;SDS011;52992;52.084;5.412;2022-11-13T11:04:37;12.17;;;8.50;;
66189;SDS011;52992;52.084;5.412;2022-11-13T11:07:22;16.40;;;9.07;;
66189;SDS011;52992;52.084;5.412;2022-11-13T11:10:19;16.97;;;8.60;;
66189;SDS011;52992;52.084;5.412;2022-11-13T11:13:18;12.80;;;9.27;;
66189;SDS011;52992;52.084;5.412;2022-11-13T11:16:07;12.10;;;9.33;;
66189;SDS011;52992;52.084;5.412;2022-11-13T11:18:56;14.43;;;9.30;;
66189;SDS011;52992;52.084;5.412;2022-11-13T11:21:49;12.10;;;8.60;;
66189;SDS011;52992;52.084;5.412;2022-11-13T11:24:38;11.97;;;8.57;;
66189;SDS011;52992;52.084;5.412;2022-11-13T11:27:36;13.13;;;8.73;;
66189;SDS011;52992;52.084;5.412;2022-11-13T11:30:28;11.50;;;8.40;;
66189;SDS011;52992;52.084;5.412;2022-11-13T11:36:27;12.83;;;8.80;;
66189;SDS011;52992;52.084;5.412;2022-11-13T11:39:30;11.10;;;8.27;;
66189;SDS011;52992;52.084;5.412;2022-11-13T11:45:36;12.17;;;7.17;;
66189;SDS011;52992;52.084;5.412;2022-11-13T11:48:25;12.43;;;6.70;;
66189;SDS011;52992;52.084;5.412;2022-11-13T11:54:39;12.50;;;6.57;;
66189;SDS011;52992;52.084;5.412;2022-11-13T11:57:41;9.60;;;6.53;;
66189;SDS011;52992;52.084;5.412;2022-11-13T12:00:32;8.47;;;6.63;;
66189;SDS011;52992;52.084;5.412;2022-11-13T12:04:26;9.90;;;6.83;;
66189;SDS011;52992;52.084;5.412;2022-11-13T12:09:54;11.07;;;7.10;;
66189;SDS011;52992;52.084;5.412;2022-11-13T12:34:21;8.43;;;5.50;;
66189;SDS011;52992;52.084;5.412;2022-11-13T12:37:25;9.73;;;6.50;;
66189;SDS011;52992;52.084;5.412;2022-11-13T12:40:24;8.23;;;5.03;;
66189;SDS011;52992;52.084;5.412;2022-11-13T12:43:45;8.80;;;5.30;;
66189;SDS011;52992;52.084;5.412;2022-11-13T12:46:33;10.00;;;5.00;;
66189;SDS011;52992;52.084;5.412;2022-11-13T12:49:33;6.80;;;4.73;;
66189;SDS011;52992;52.084;5.412;2022-11-13T12:52:21;5.33;;;4.00;;
66189;SDS011;52992;52.084;5.412;2022-11-13T12:58:23;7.10;;;4.27;;
66189;SDS011;52992;52.084;5.412;2022-11-13T13:04:06;6.87;;;4.27;;
66189;SDS011;52992;52.084;5.412;2022-11-13T13:17:15;7.23;;;4.67;;
66189;SDS011;52992;52.084;5.412;2022-11-13T13:20:04;7.80;;;4.73;;
66189;SDS011;52992;52.084;5.412;2022-11-13T13:22:59;9.07;;;4.97;;
66189;SDS011;52992;52.084;5.412;2022-11-13T13:26:00;10.73;;;4.57;;
66189;SDS011;52992;52.084;5.412;2022-11-13T13:28:48;8.80;;;4.70;;
66189;SDS011;52992;52.084;5.412;2022-11-13T13:35:07;9.23;;;5.13;;
66189;SDS011;52992;52.084;5.412;2022-11-13T13:38:09;6.87;;;4.50;;
66189;SDS011;52992;52.084;5.412;2022-11-13T13:44:43;5.40;;;3.63;;
66189;SDS011;52992;52.084;5.412;2022-11-13T13:47:42;4.87;;;3.70;;
66189;SDS011;52992;52.084;5.412;2022-11-13T13:50:31;3.90;;;3.20;;
66189;SDS011;52992;52.084;5.412;2022-11-13T13:53:29;5.87;;;3.60;;
66189;SDS011;52992;52.084;5.412;2022-11-13T13:56:18;4.03;;;3.30;;
66189;SDS011;52992;52.084;5.412;2022-11-13T13:59:12;5.20;;;3.47;;
66189;SDS011;52992;52.084;5.412;2022-11-13T14:02:01;8.17;;;4.43;;
66189;SDS011;52992;52.084;5.412;2022-11-13T14:04:49;5.87;;;3.93;;
66189;SDS011;52992;52.084;5.412;2022-11-13T14:07:44;5.60;;;3.80;;
66189;SDS011;52992;52.084;5.412;2022-11-13T14:10:30;4.87;;;3.87;;
66189;SDS011;52992;52.084;5.412;2022-11-13T14:13:26;5.83;;;3.50;;
66189;SDS011;52992;52.084;5.412;2022-11-13T14:16:13;4.97;;;3.50;;
66189;SDS011;52992;52.084;5.412;2022-11-13T14:19:02;4.73;;;3.13;;
66189;SDS011;52992;52.084;5.412;2022-11-13T14:21:49;5.60;;;4.03;;
66189;SDS011;52992;52.084;5.412;2022-11-13T14:24:44;5.97;;;3.87;;
66189;SDS011;52992;52.084;5.412;2022-11-13T14:27:40;5.83;;;3.70;;
66189;SDS011;52992;52.084;5.412;2022-11-13T14:30:27;5.60;;;3.50;;
66189;SDS011;52992;52.084;5.412;2022-11-13T14:33:15;7.13;;;4.13;;
66189;SDS011;52992;52.084;5.412;2022-11-13T14:36:05;4.47;;;3.70;;
66189;SDS011;52992;52.084;5.412;2022-11-13T14:38:51;5.80;;;3.97;;
66189;SDS011;52992;52.084;5.412;2022-11-13T14:41:39;6.37;;;4.23;;
66189;SDS011;52992;52.084;5.412;2022-11-13T14:44:31;4.70;;;3.37;;
66189;SDS011;52992;52.084;5.412;2022-11-13T14:47:22;4.70;;;3.93;;
66189;SDS011;52992;52.084;5.412;2022-11-13T14:53:06;6.70;;;4.60;;
66189;SDS011;52992;52.084;5.412;2022-11-13T14:55:54;8.33;;;4.83;;
66189;SDS011;52992;52.084;5.412;2022-11-13T14:58:42;8.03;;;5.33;;
66189;SDS011;52992;52.084;5.412;2022-11-13T15:01:30;11.03;;;6.63;;
66189;SDS011;52992;52.084;5.412;2022-11-13T15:04:16;10.70;;;6.20;;
66189;SDS011;52992;52.084;5.412;2022-11-13T15:07:02;10.10;;;6.27;;
66189;SDS011;52992;52.084;5.412;2022-11-13T15:10:04;10.13;;;6.37;;
66189;SDS011;52992;52.084;5.412;2022-11-13T15:12:50;7.43;;;4.67;;
66189;SDS011;52992;52.084;5.412;2022-11-13T15:15:36;7.50;;;4.17;;
66189;SDS011;52992;52.084;5.412;2022-11-13T15:18:22;3.87;;;3.10;;
66189;SDS011;52992;52.084;5.412;2022-11-13T15:21:08;9.77;;;4.93;;
66189;SDS011;52992;52.084;5.412;2022-11-13T15:23:54;5.53;;;3.60;;
66189;SDS011;52992;52.084;5.412;2022-11-13T15:26:40;8.03;;;3.90;;
66189;SDS011;52992;52.084;5.412;2022-11-13T15:29:25;11.30;;;4.37;;
66189;SDS011;52992;52.084;5.412;2022-11-13T15:32:11;5.43;;;3.37;;
66189;SDS011;52992;52.084;5.412;2022-11-13T15:34:58;6.40;;;3.70;;
66189;SDS011;52992;52.084;5.412;2022-11-13T15:37:43;8.83;;;3.90;;
66189;SDS011;52992;52.084;5.412;2022-11-13T15:40:29;5.13;;;3.73;;
66189;SDS011;52992;52.084;5.412;2022-11-13T15:43:16;6.20;;;3.20;;
66189;SDS011;52992;52.084;5.412;2022-11-13T15:46:07;4.87;;;3.20;;
66189;SDS011;52992;52.084;5.412;2022-11-13T15:48:58;4.87;;;3.57;;
66189;SDS011;52992;52.084;5.412;2022-11-13T15:51:44;6.30;;;3.60;;
66189;SDS011;52992;52.084;5.412;2022-11-13T15:54:30;7.10;;;3.30;;
66189;SDS011;52992;52.084;5.412;2022-11-13T15:57:18;6.23;;;4.37;;
66189;SDS011;52992;52.084;5.412;2022-11-13T16:00:12;6.17;;;3.30;;
66189;SDS011;52992;52.084;5.412;2022-11-13T16:02:59;5.83;;;3.97;;
66189;SDS011;52992;52.084;5.412;2022-11-13T16:05:44;5.57;;;3.10;;
66189;SDS011;52992;52.084;5.412;2022-11-13T16:08:30;6.77;;;3.40;;
66189;SDS011;52992;52.084;5.412;2022-11-13T16:11:16;5.10;;;3.50;;
66189;SDS011;52992;52.084;5.412;2022-11-13T16:14:02;4.63;;;3.40;;
66189;SDS011;52992;52.084;5.412;2022-11-13T16:16:48;6.20;;;3.90;;
66189;SDS011;52992;52.084;5.412;2022-11-13T16:19:34;4.53;;;3.17;;
66189;SDS011;52992;52.084;5.412;2022-11-13T16:22:24;4.97;;;3.63;;
66189;SDS011;52992;52.084;5.412;2022-11-13T16:25:18;5.40;;;3.83;;
66189;SDS011;52992;52.084;5.412;2022-11-13T16:28:04;3.50;;;3.10;;
66189;SDS011;52992;52.084;5.412;2022-11-13T16:30:50;6.60;;;4.27;;
66189;SDS011;52992;52.084;5.412;2022-11-13T16:33:36;7.00;;;4.10;;
66189;SDS011;52992;52.084;5.412;2022-11-13T16:36:21;6.43;;;3.60;;
66189;SDS011;52992;52.084;5.412;2022-11-13T16:39:08;5.90;;;4.07;;
66189;SDS011;52992;52.084;5.412;2022-11-13T16:41:58;7.30;;;4.63;;
66189;SDS011;52992;52.084;5.412;2022-11-13T16:44:43;5.90;;;4.53;;
66189;SDS011;52992;52.084;5.412;2022-11-13T16:47:29;9.37;;;4.60;;
66189;SDS011;52992;52.084;5.412;2022-11-13T16:50:20;9.50;;;5.30;;
66189;SDS011;52992;52.084;5.412;2022-11-13T16:53:08;8.73;;;5.20;;
66189;SDS011;52992;52.084;5.412;2022-11-13T16:55:54;7.50;;;4.90;;
66189;SDS011;52992;52.084;5.412;2022-11-13T16:58:39;8.63;;;5.00;;
66189;SDS011;52992;52.084;5.412;2022-11-13T17:01:25;7.67;;;4.37;;
66189;SDS011;52992;52.084;5.412;2022-11-13T17:04:12;7.00;;;4.60;;
66189;SDS011;52992;52.084;5.412;2022-11-13T17:06:58;6.73;;;4.03;;
66189;SDS011;52992;52.084;5.412;2022-11-13T17:09:44;4.33;;;3.60;;
66189;SDS011;52992;52.084;5.412;2022-11-13T17:12:30;5.77;;;4.53;;
66189;SDS011;52992;52.084;5.412;2022-11-13T17:15:15;5.00;;;4.20;;
66189;SDS011;52992;52.084;5.412;2022-11-13T17:18:01;4.93;;;3.93;;
66189;SDS011;52992;52.084;5.412;2022-11-13T17:20:50;7.47;;;3.80;;
66189;SDS011;52992;52.084;5.412;2022-11-13T17:23:36;7.63;;;4.03;;
66189;SDS011;52992;52.084;5.412;2022-11-13T17:26:22;5.80;;;3.93;;
66189;SDS011;52992;52.084;5.412;2022-11-13T17:29:08;6.57;;;4.23;;
66189;SDS011;52992;52.084;5.412;2022-11-13T17:31:54;6.27;;;4.40;;
66189;SDS011;52992;52.084;5.412;2022-11-13T17:34:39;6.93;;;4.40;;
66189;SDS011;52992;52.084;5.412;2022-11-13T17:37:26;7.03;;;4.83;;
66189;SDS011;52992;52.084;5.412;2022-11-13T17:40:12;7.90;;;4.50;;
66189;SDS011;52992;52.084;5.412;2022-11-13T17:42:58;8.07;;;5.50;;
66189;SDS011;52992;52.084;5.412;2022-11-13T17:45:47;16.00;;;7.87;;
66189;SDS011;52992;52.084;5.412;2022-11-13T17:48:34;13.43;;;7.20;;
66189;SDS011;52992;52.084;5.412;2022-11-13T17:51:19;8.87;;;5.13;;
66189;SDS011;52992;52.084;5.412;2022-11-13T17:54:05;8.07;;;4.97;;
66189;SDS011;52992;52.084;5.412;2022-11-13T17:56:51;8.43;;;5.00;;
66189;SDS011;52992;52.084;5.412;2022-11-13T17:59:36;6.90;;;4.63;;